createdAt,value
2018-07-11T00:01:53.836Z,95135.42
2018-07-11T00:04:24.251Z,95135.41
2018-07-11T00:06:54.231Z,95134.95
2018-07-11T00:09:24.204Z,95131.56
2018-07-11T00:11:54.249Z,95128.08
2018-07-11T00:14:24.140Z,95127.73
2018-07-11T00:16:59.303Z,95128.48
2018-07-11T00:19:29.331Z,95132.19
2018-07-11T00:21:59.472Z,95134.95
2018-07-11T00:24:29.596Z,95134.91
2018-07-11T00:26:59.712Z,95132.69
2018-07-11T00:29:29.872Z,95132.05
2018-07-11T00:31:59.947Z,95127.79
2018-07-11T00:34:30.196Z,95121.63
2018-07-11T00:37:00.355Z,95121.13
2018-07-11T00:39:30.463Z,95119.28
2018-07-11T00:42:00.515Z,95120.08
2018-07-11T00:44:30.611Z,95117.18
2018-07-11T00:47:00.708Z,95118.30
2018-07-11T00:49:30.761Z,95120.33
2018-07-11T00:52:00.939Z,95119.61
2018-07-11T00:54:31.024Z,95118.07
2018-07-11T00:57:01.644Z,95115.00
2018-07-11T00:59:32.949Z,95119.16
2018-07-11T01:02:05.509Z,95115.62
2018-07-11T01:04:35.888Z,95114.17
2018-07-11T01:07:07.390Z,95117.05
2018-07-11T01:09:45.838Z,95111.51
2018-07-11T01:12:15.895Z,95114.78
2018-07-11T01:14:46.487Z,95110.39
2018-07-11T01:17:21.530Z,95111.84
2018-07-11T01:19:52.132Z,95119.55
2018-07-11T01:22:22.273Z,95119.22
2018-07-11T01:24:52.279Z,95112.14
2018-07-11T01:27:22.228Z,95116.44
2018-07-11T01:29:52.249Z,95115.57
2018-07-11T01:32:22.182Z,95115.80
2018-07-11T01:34:52.069Z,95118.59
2018-07-11T01:37:22.059Z,95115.62
2018-07-11T01:39:52.124Z,95117.27
2018-07-11T01:42:22.074Z,95119.76
2018-07-11T01:44:52.120Z,95119.15
2018-07-11T01:47:22.023Z,95119.83
2018-07-11T01:49:52.071Z,95120.77
2018-07-11T01:52:32.936Z,95120.13
2018-07-11T01:55:02.923Z,95122.67
2018-07-11T01:57:32.847Z,95124.80
2018-07-11T02:00:02.880Z,95118.51
2018-07-11T02:02:33.045Z,95113.64
2018-07-11T02:05:03.075Z,95118.58
2018-07-11T02:07:33.218Z,95118.84
2018-07-11T02:10:03.227Z,95111.78
2018-07-11T02:12:33.295Z,95108.28
2018-07-11T02:15:06.252Z,95114.02
2018-07-11T02:17:37.927Z,95108.71
2018-07-11T02:20:12.095Z,95108.92
2018-07-11T02:22:42.264Z,95120.45
2018-07-11T02:25:13.868Z,95118.28
2018-07-11T02:27:43.939Z,95118.76
2018-07-11T02:30:15.348Z,95122.17
2018-07-11T02:32:45.443Z,95123.25
2018-07-11T02:35:15.608Z,95123.31
2018-07-11T02:37:45.436Z,95127.20
2018-07-11T02:40:15.291Z,95127.19
2018-07-11T02:42:45.248Z,95125.69
2018-07-11T02:45:15.437Z,95126.48
2018-07-11T02:47:45.411Z,95117.85
2018-07-11T02:50:15.384Z,95114.32
2018-07-11T02:52:45.365Z,95120.78
2018-07-11T02:55:15.388Z,95116.06
2018-07-11T02:57:45.459Z,95122.30
2018-07-11T03:00:15.390Z,95122.14
2018-07-11T03:02:45.532Z,95123.27
2018-07-11T03:05:15.709Z,95123.84
2018-07-11T03:07:45.736Z,95133.69
2018-07-11T03:10:15.861Z,95135.73
2018-07-11T03:12:46.724Z,95135.59
2018-07-11T03:15:16.676Z,95136.05
2018-07-11T03:17:46.812Z,95134.39
2018-07-11T03:20:18.540Z,95137.48
2018-07-11T03:22:53.727Z,95143.23
2018-07-11T03:25:26.680Z,95140.36
2018-07-11T03:27:57.200Z,95139.73
2018-07-11T03:30:27.191Z,95138.25
2018-07-11T03:32:57.276Z,95141.38
2018-07-11T03:35:27.263Z,95136.98
2018-07-11T03:37:57.204Z,95140.09
2018-07-11T03:40:27.047Z,95146.45
2018-07-11T03:42:56.951Z,95146.72
2018-07-11T03:45:27.071Z,95144.94
2018-07-11T03:47:57.027Z,95154.61
2018-07-11T03:50:27.002Z,95149.91
2018-07-11T03:52:56.891Z,95155.79
2018-07-11T03:55:26.816Z,95161.00
2018-07-11T03:57:56.678Z,95158.39
2018-07-11T04:00:26.823Z,95162.34
2018-07-11T04:02:57.131Z,95162.78
2018-07-11T04:05:27.050Z,95165.96
2018-07-11T04:07:57.060Z,95173.27
2018-07-11T04:10:27.057Z,95182.86
2018-07-11T04:12:59.667Z,95184.00
2018-07-11T04:15:29.575Z,95182.81
2018-07-11T04:17:59.547Z,95182.14
2018-07-11T04:20:29.471Z,95181.45
2018-07-11T04:22:59.313Z,95179.83
2018-07-11T04:25:29.651Z,95189.67
2018-07-11T04:27:59.832Z,95184.50
2018-07-11T04:30:30.058Z,95181.22
2018-07-11T04:33:00.013Z,95182.80
2018-07-11T04:35:30.007Z,95184.95
2018-07-11T04:38:00.061Z,95192.59
2018-07-11T04:40:30.116Z,95195.83
2018-07-11T04:43:00.510Z,95192.37
2018-07-11T04:45:30.375Z,95194.63
2018-07-11T04:48:00.469Z,95190.95
2018-07-11T04:50:30.568Z,95192.80
2018-07-11T04:53:03.287Z,95190.65
2018-07-11T04:55:33.385Z,95179.42
2018-07-11T04:58:03.275Z,95182.09
2018-07-11T05:00:33.133Z,95185.23
2018-07-11T05:03:03.255Z,95186.35
2018-07-11T05:05:33.154Z,95184.44
2018-07-11T05:08:02.983Z,95186.45
2018-07-11T05:10:32.934Z,95186.66
2018-07-11T05:13:02.796Z,95189.14
2018-07-11T05:15:32.793Z,95191.50
2018-07-11T05:18:02.653Z,95188.14
2018-07-11T05:20:32.747Z,95190.80
2018-07-11T05:23:02.803Z,95191.36
2018-07-11T05:25:34.125Z,95195.28
2018-07-11T05:28:04.145Z,95193.77
2018-07-11T05:30:34.297Z,95194.25
2018-07-11T05:33:04.197Z,95195.77
2018-07-11T05:35:34.127Z,95192.16
2018-07-11T05:38:04.152Z,95189.70
2018-07-11T05:40:34.003Z,95188.58
2018-07-11T05:43:03.944Z,95188.53
2018-07-11T05:45:33.815Z,95189.90
2018-07-11T05:48:03.682Z,95194.45
2018-07-11T05:50:33.621Z,95193.18
2018-07-11T05:53:03.585Z,95199.20
2018-07-11T05:55:33.406Z,95199.20
2018-07-11T05:58:03.540Z,95199.46
2018-07-11T06:00:33.457Z,95195.00
2018-07-11T06:03:03.473Z,95191.22
2018-07-11T06:05:34.302Z,95194.21
2018-07-11T06:08:04.444Z,95196.41
2018-07-11T06:10:34.559Z,95191.09
2018-07-11T06:13:04.584Z,95192.09
2018-07-11T06:15:34.491Z,95184.87
2018-07-11T06:18:04.391Z,95186.13
2018-07-11T06:20:34.266Z,95182.23
2018-07-11T06:23:04.282Z,95184.34
2018-07-11T06:25:36.281Z,95176.25
2018-07-11T06:28:06.341Z,95180.03
2018-07-11T06:30:36.244Z,95177.89
2018-07-11T06:33:06.297Z,95180.62
2018-07-11T06:35:39.575Z,95165.89
2018-07-11T06:38:09.435Z,95168.84
2018-07-11T06:40:39.356Z,95175.38
2018-07-11T06:43:09.300Z,95173.86
2018-07-11T06:45:39.157Z,95179.11
2018-07-11T06:48:09.089Z,95178.17
2018-07-11T06:50:39.068Z,95175.81
2018-07-11T06:53:09.028Z,95172.03
2018-07-11T06:55:39.002Z,95172.57
2018-07-11T06:58:09.028Z,95170.08
2018-07-11T07:00:39.014Z,95170.16
2018-07-11T07:03:08.883Z,95173.23
2018-07-11T07:05:38.719Z,95171.92
2018-07-11T07:08:08.861Z,95165.95
2018-07-11T07:10:38.870Z,95169.00
2018-07-11T07:13:08.757Z,95165.45
2018-07-11T07:15:38.699Z,95168.94
2018-07-11T07:18:08.673Z,95161.29
2018-07-11T07:20:38.535Z,95164.41
2018-07-11T07:23:08.426Z,95156.36
2018-07-11T07:25:38.364Z,95163.17
2018-07-11T07:28:08.412Z,95161.62
2018-07-11T07:30:38.396Z,95157.62
2018-07-11T07:33:08.384Z,95158.23
2018-07-11T07:35:38.287Z,95158.44
2018-07-11T07:38:08.164Z,95152.46
2018-07-11T07:40:37.990Z,95146.48
2018-07-11T07:43:07.875Z,95143.09
2018-07-11T07:45:37.894Z,95143.91
2018-07-11T07:48:07.911Z,95141.97
2018-07-11T07:50:37.892Z,95139.75
2018-07-11T07:53:08.802Z,95148.62
2018-07-11T07:55:38.819Z,95144.83
2018-07-11T07:58:08.831Z,95142.92
2018-07-11T08:00:38.799Z,95139.98
2018-07-11T08:03:08.781Z,95152.61
2018-07-11T08:05:38.785Z,95152.41
2018-07-11T08:08:08.735Z,95140.44
2018-07-11T08:10:38.643Z,95132.98
2018-07-11T08:13:08.635Z,95138.06
2018-07-11T08:15:38.494Z,95132.15
2018-07-11T08:18:08.412Z,95132.44
2018-07-11T08:20:38.311Z,95126.24
2018-07-11T08:23:20.509Z,95129.11
2018-07-11T08:26:02.649Z,95132.05
2018-07-11T08:28:40.406Z,95129.19
2018-07-11T08:31:50.764Z,95124.31
2018-07-11T08:34:31.387Z,95118.64
2018-07-11T08:37:14.037Z,95117.09
2018-07-11T08:40:43.384Z,95118.13
2018-07-11T08:45:34.716Z,95114.80
2018-07-11T08:50:19.071Z,95119.83
2018-07-11T08:53:00.648Z,95111.72
2018-07-11T08:55:41.456Z,95107.05
2018-07-11T09:02:34.907Z,95109.61
2018-07-11T09:06:14.287Z,95107.31
2018-07-11T09:08:59.592Z,95105.23
2018-07-11T09:12:43.144Z,95105.88
2018-07-11T09:17:28.632Z,95109.70
2018-07-11T09:20:15.590Z,95105.43
2018-07-11T09:23:00.038Z,95096.68
2018-07-11T09:25:29.975Z,95097.88
2018-07-11T09:27:59.920Z,95101.25
2018-07-11T09:30:29.819Z,95095.44
2018-07-11T09:32:59.789Z,95095.31
2018-07-11T09:35:29.924Z,95097.94
2018-07-11T09:38:00.048Z,95097.30
2018-07-11T09:40:30.109Z,95099.94
2018-07-11T09:43:00.239Z,95098.85
2018-07-11T09:45:30.279Z,95097.28
2018-07-11T09:48:00.279Z,95095.84
2018-07-11T09:50:30.295Z,95098.27
2018-07-11T09:53:00.320Z,95103.91
2018-07-11T09:55:30.402Z,95104.23
2018-07-11T09:58:00.403Z,95097.08
2018-07-11T10:00:35.619Z,95092.41
2018-07-11T10:03:06.036Z,95097.32
2018-07-11T10:05:35.980Z,95097.98
2018-07-11T10:08:09.601Z,95099.84
2018-07-11T10:10:39.495Z,95093.87
2018-07-11T10:13:09.544Z,95092.13
2018-07-11T10:15:39.486Z,95091.28
2018-07-11T10:18:09.438Z,95090.27
2018-07-11T10:20:39.444Z,95089.67
2018-07-11T10:23:09.283Z,95086.30
2018-07-11T10:25:39.381Z,95088.88
2018-07-11T10:28:20.296Z,95094.23
2018-07-11T10:30:50.764Z,95088.23
2018-07-11T10:33:20.697Z,95095.42
2018-07-11T10:35:50.549Z,95089.19
2018-07-11T10:38:20.495Z,95086.80
2018-07-11T10:40:50.442Z,95088.91
2018-07-11T10:43:20.508Z,95088.94
2018-07-11T10:45:50.491Z,95082.55
2018-07-11T10:48:20.557Z,95079.79
2018-07-11T10:50:50.565Z,95076.06
2018-07-11T10:53:20.537Z,95080.19
2018-07-11T10:55:50.440Z,95075.48
2018-07-11T10:58:20.720Z,95073.67
2018-07-11T11:01:05.024Z,95078.76
2018-07-11T11:03:33.500Z,95072.29
2018-07-11T11:06:03.507Z,95073.91
2018-07-11T11:08:33.359Z,95078.87
2018-07-11T11:11:03.347Z,95078.34
2018-07-11T11:13:33.130Z,95071.12
2018-07-11T11:16:03.085Z,95065.81
2018-07-11T11:18:33.179Z,95059.36
2018-07-11T11:21:03.139Z,95056.45
2018-07-11T11:23:32.915Z,95060.70
2018-07-11T11:26:02.754Z,95063.98
2018-07-11T11:28:32.781Z,95058.73
2018-07-11T11:31:02.647Z,95056.91
2018-07-11T11:33:32.496Z,95057.81
2018-07-11T11:36:02.351Z,95060.61
2018-07-11T11:38:32.256Z,95064.45
2018-07-11T11:41:02.069Z,95055.45
2018-07-11T11:43:31.979Z,95051.89
2018-07-11T11:46:01.972Z,95047.09
2018-07-11T11:48:31.868Z,95042.30
2018-07-11T11:51:01.743Z,95036.67
2018-07-11T11:53:31.844Z,95033.41
2018-07-11T11:56:01.715Z,95037.57
2018-07-11T11:58:31.855Z,95031.13
2018-07-11T12:01:01.750Z,95036.07
2018-07-11T12:03:31.776Z,95024.95
2018-07-11T12:06:01.787Z,95024.50
2018-07-11T12:08:51.821Z,95024.25
2018-07-11T12:11:21.760Z,95033.91
2018-07-11T12:13:51.862Z,95018.84
2018-07-11T12:16:21.707Z,95021.92
2018-07-11T12:18:51.559Z,95019.08
2018-07-11T12:21:21.580Z,95016.25
2018-07-11T12:23:51.611Z,95014.91
2018-07-11T12:26:21.663Z,95010.02
2018-07-11T12:28:51.668Z,94996.80
2018-07-11T12:31:21.594Z,94998.95
2018-07-11T12:33:51.656Z,94999.31
2018-07-11T12:36:21.638Z,94990.24
2018-07-11T12:38:55.160Z,94988.93
2018-07-11T12:41:25.320Z,94993.95
2018-07-11T12:43:55.231Z,94995.23
2018-07-11T12:46:25.459Z,94995.73
2018-07-11T12:49:00.574Z,94992.83
2018-07-11T12:51:30.712Z,94996.94
2018-07-11T12:54:00.979Z,94990.66
2018-07-11T12:56:30.979Z,94990.61
2018-07-11T12:59:01.030Z,94986.22
2018-07-11T13:01:31.034Z,94997.38
2018-07-11T13:04:01.128Z,94984.41
2018-07-11T13:06:31.244Z,94993.37
2018-07-11T13:09:01.200Z,94991.09
2018-07-11T13:11:31.180Z,94992.28
2018-07-11T13:14:01.072Z,94991.22
2018-07-11T13:16:31.042Z,94985.66
2018-07-11T13:19:00.961Z,94983.27
2018-07-11T13:21:30.924Z,94983.39
2018-07-11T13:24:00.928Z,94978.61
2018-07-11T13:26:30.755Z,94984.94
2018-07-11T13:29:00.715Z,94982.88
2018-07-11T13:31:30.818Z,94981.88
2018-07-11T13:34:07.345Z,94987.05
2018-07-11T13:36:37.250Z,94986.74
2018-07-11T13:39:15.436Z,94981.55
2018-07-11T13:41:45.894Z,94981.34
2018-07-11T13:44:15.791Z,94987.48
2018-07-11T13:46:45.962Z,94985.53
2018-07-11T13:49:15.899Z,94983.16
2018-07-11T13:51:45.895Z,94979.27
2018-07-11T13:54:15.780Z,94972.04
2018-07-11T13:56:46.639Z,94981.73
2018-07-11T13:59:17.177Z,94980.66
2018-07-11T14:01:47.057Z,94980.40
2018-07-11T14:04:17.194Z,94983.08
2018-07-11T14:06:47.252Z,94986.43
2018-07-11T14:09:17.204Z,94978.92
2018-07-11T14:11:47.127Z,94985.02
2018-07-11T14:14:17.136Z,94980.81
2018-07-11T14:16:47.110Z,94982.39
2018-07-11T14:19:17.295Z,94979.13
2018-07-11T14:21:47.164Z,94982.74
2018-07-11T14:24:17.153Z,94981.02
2018-07-11T14:26:47.344Z,94982.88
2018-07-11T14:29:17.249Z,94979.95
2018-07-11T14:31:47.294Z,94980.97
2018-07-11T14:34:17.331Z,94972.95
2018-07-11T14:36:47.172Z,94975.53
2018-07-11T14:39:17.186Z,94975.84
2018-07-11T14:41:47.075Z,94963.27
2018-07-11T14:44:17.540Z,94967.64
2018-07-11T14:46:47.415Z,94967.72
2018-07-11T14:49:17.876Z,94968.45
2018-07-11T14:51:47.903Z,94966.97
2018-07-11T14:54:17.971Z,94967.52
2018-07-11T14:56:48.231Z,94959.49
2018-07-11T14:59:18.299Z,94964.84
2018-07-11T15:01:48.326Z,94960.61
2018-07-11T15:04:18.143Z,94964.17
2018-07-11T15:06:48.033Z,94964.61
2018-07-11T15:09:18.314Z,94971.29
2018-07-11T15:11:48.091Z,94969.63
2018-07-11T15:14:18.116Z,94971.08
2018-07-11T15:16:48.287Z,94972.80
2018-07-11T15:19:18.685Z,94976.18
2018-07-11T15:21:48.779Z,94980.93
2018-07-11T15:24:18.668Z,94974.47
2018-07-11T15:26:48.679Z,94975.59
2018-07-11T15:29:19.170Z,94974.78
2018-07-11T15:31:49.597Z,94982.86
2018-07-11T15:34:19.411Z,94983.06
2018-07-11T15:36:49.500Z,94981.86
2018-07-11T15:39:19.463Z,94988.14
2018-07-11T15:41:49.534Z,94980.66
2018-07-11T15:44:19.490Z,94980.80
2018-07-11T15:46:49.579Z,94984.18
2018-07-11T15:49:19.824Z,94979.05
2018-07-11T15:51:50.569Z,94981.23
2018-07-11T15:54:20.648Z,94979.06
2018-07-11T15:56:50.694Z,94985.20
2018-07-11T15:59:20.997Z,94981.02
2018-07-11T16:01:55.089Z,94985.73
2018-07-11T16:04:35.200Z,94982.73
2018-07-11T16:07:06.846Z,94984.97
2018-07-11T16:09:59.034Z,94985.99
2018-07-11T16:12:28.882Z,94981.55
2018-07-11T16:14:58.856Z,94984.53
2018-07-11T16:17:28.820Z,94979.20
2018-07-11T16:19:58.856Z,94989.20
2018-07-11T16:22:28.979Z,94986.73
2018-07-11T16:24:58.972Z,94986.14
2018-07-11T16:27:28.927Z,94985.30
2018-07-11T16:29:58.807Z,94990.16
2018-07-11T16:32:28.665Z,94991.61
2018-07-11T16:34:58.706Z,94988.28
2018-07-11T16:37:28.655Z,94990.28
2018-07-11T16:39:58.644Z,94991.09
2018-07-11T16:42:28.562Z,94989.55
2018-07-11T16:44:58.437Z,94997.45
2018-07-11T16:47:28.841Z,94998.98
2018-07-11T16:49:58.880Z,94995.67
2018-07-11T16:52:29.311Z,94995.20
2018-07-11T16:54:59.568Z,95005.19
2018-07-11T16:57:37.273Z,95004.44
2018-07-11T17:00:09.354Z,95010.05
2018-07-11T17:02:41.435Z,95007.80
2018-07-11T17:05:12.215Z,95012.61
2018-07-11T17:07:50.213Z,95010.59
2018-07-11T17:10:22.748Z,95020.16
2018-07-11T17:12:58.126Z,95018.06
2018-07-11T17:15:30.506Z,95016.01
2018-07-11T17:18:00.543Z,95017.83
2018-07-11T17:20:30.573Z,95019.54
2018-07-11T17:23:06.884Z,95029.90
2018-07-11T17:25:41.824Z,95026.70
2018-07-11T17:28:11.837Z,95031.63
2018-07-11T17:30:43.943Z,95033.47
2018-07-11T17:33:14.606Z,95031.63
2018-07-11T17:35:50.191Z,95038.55
2018-07-11T17:38:25.962Z,95040.86
2018-07-11T17:41:11.280Z,95043.39
2018-07-11T17:43:41.319Z,95049.08
2018-07-11T17:46:11.348Z,95047.81
2018-07-11T17:49:45.433Z,95052.02
2018-07-11T17:52:15.491Z,95055.59
2018-07-11T17:55:08.678Z,95061.70
2018-07-11T17:58:10.556Z,95053.72
2018-07-11T18:00:46.300Z,95058.87
2018-07-11T18:03:36.316Z,95058.59
2018-07-11T18:06:16.883Z,95060.70
2018-07-11T18:09:09.682Z,95065.62
2018-07-11T18:11:53.928Z,95068.91
2018-07-11T18:14:37.649Z,95063.80
2018-07-11T18:17:12.227Z,95067.80
2018-07-11T18:19:53.962Z,95068.82
2018-07-11T18:22:41.758Z,95073.26
2018-07-11T18:25:22.370Z,95078.16
2018-07-11T18:30:10.548Z,95083.15
2018-07-11T18:32:53.803Z,95092.87
2018-07-11T18:35:35.234Z,95093.09
2018-07-11T18:38:13.928Z,95094.92
2018-07-11T18:41:28.894Z,95104.99
2018-07-11T18:44:06.665Z,95099.34
2018-07-11T18:46:55.458Z,95107.87
2018-07-11T18:49:49.184Z,95110.65
2018-07-11T18:52:33.412Z,95114.40
2018-07-11T19:01:18.569Z,95115.10
2018-07-11T19:04:05.419Z,95118.95
2018-07-11T19:06:47.703Z,95122.08
2018-07-11T19:10:26.824Z,95122.84
2018-07-11T19:12:59.768Z,95124.63
2018-07-11T19:15:47.564Z,95120.88
2018-07-11T19:18:29.041Z,95123.80
2018-07-11T19:21:11.680Z,95122.02
2018-07-11T19:23:58.881Z,95130.70
2018-07-11T19:27:05.388Z,95132.20
2018-07-11T19:29:44.252Z,95134.23
2018-07-11T19:32:32.187Z,95135.64
2018-07-11T19:37:45.516Z,95133.67
2018-07-11T19:40:56.464Z,95135.00
2018-07-11T19:43:48.605Z,95135.61
2018-07-11T19:46:45.776Z,95134.92
2018-07-11T19:49:31.872Z,95134.52
2018-07-11T19:54:22.480Z,95134.91
2018-07-11T19:56:52.524Z,95134.16
2018-07-11T19:59:22.426Z,95133.42
2018-07-11T20:01:52.487Z,95131.76
2018-07-11T20:04:22.400Z,95133.24
2018-07-11T20:06:52.379Z,95130.73
2018-07-11T20:09:22.640Z,95128.83
2018-07-11T20:11:52.603Z,95129.03
2018-07-11T20:14:22.615Z,95134.83
2018-07-11T20:16:52.632Z,95134.17
2018-07-11T20:19:22.646Z,95128.48
2018-07-11T20:21:52.706Z,95131.98
2018-07-11T20:24:23.090Z,95135.22
2018-07-11T20:26:53.174Z,95137.45
2018-07-11T20:29:23.188Z,95137.55
2018-07-11T20:31:53.120Z,95131.34
2018-07-11T20:34:23.100Z,95135.77
2018-07-11T20:36:53.145Z,95143.30
2018-07-11T20:39:23.171Z,95152.23
2018-07-11T20:41:53.165Z,95150.84
2018-07-11T20:44:23.048Z,95157.11
2018-07-11T20:46:53.088Z,95160.66
2018-07-11T20:49:28.566Z,95166.70
2018-07-11T20:51:58.574Z,95160.87
2018-07-11T20:54:28.460Z,95170.39
2018-07-11T20:56:58.541Z,95165.60
2018-07-11T20:59:39.450Z,95169.45
2018-07-11T21:02:20.377Z,95174.01
2018-07-11T21:05:17.503Z,95174.59
2018-07-11T21:07:58.374Z,95174.82
2018-07-11T21:11:41.740Z,95180.08
2018-07-11T21:16:27.663Z,95182.86
2018-07-11T21:19:04.556Z,95183.98
2018-07-11T21:21:35.267Z,95188.85
2018-07-11T21:24:06.124Z,95198.19
2018-07-11T21:26:36.433Z,95191.20
2018-07-11T21:29:06.412Z,95196.94
2018-07-11T21:31:36.478Z,95202.61
2018-07-11T21:34:06.359Z,95201.64
2018-07-11T21:36:36.255Z,95199.44
2018-07-11T21:39:06.784Z,95205.91
2018-07-11T21:41:36.796Z,95201.55
2018-07-11T21:44:07.171Z,95199.60
2018-07-11T21:46:37.131Z,95198.17
2018-07-11T21:49:07.100Z,95197.59
2018-07-11T21:51:36.971Z,95205.16
2018-07-11T21:54:06.843Z,95200.83
2018-07-11T21:56:36.776Z,95208.91
2018-07-11T21:59:06.704Z,95206.03
2018-07-11T22:01:36.825Z,95200.83
2018-07-11T22:04:06.664Z,95203.51
2018-07-11T22:06:36.696Z,95206.00
2018-07-11T22:09:07.164Z,95203.27
2018-07-11T22:11:37.235Z,95196.12
2018-07-11T22:14:07.342Z,95195.90
2018-07-11T22:16:37.288Z,95192.20
2018-07-11T22:19:07.199Z,95194.39
2018-07-11T22:21:35.584Z,95196.66
2018-07-11T22:24:03.677Z,95204.71
2018-07-11T22:26:31.711Z,95202.35
2018-07-11T22:28:59.971Z,95203.45
2018-07-11T22:31:28.108Z,95207.95
2018-07-11T22:33:56.249Z,95207.85
2018-07-11T22:36:24.362Z,95206.11
2018-07-11T22:38:52.528Z,95210.67
2018-07-11T22:41:20.660Z,95201.39
2018-07-11T22:43:48.798Z,95203.56
2018-07-11T22:46:17.006Z,95207.23
2018-07-11T22:48:45.168Z,95204.14
2018-07-11T22:51:13.227Z,95202.74
2018-07-11T22:53:41.481Z,95208.98
2018-07-11T22:56:09.531Z,95203.80
2018-07-11T22:58:37.711Z,95204.48
2018-07-11T23:01:05.880Z,95202.23
2018-07-11T23:03:34.040Z,95193.52
2018-07-11T23:06:02.084Z,95198.30
2018-07-11T23:08:30.115Z,95198.70
2018-07-11T23:10:58.233Z,95197.38
2018-07-11T23:13:26.296Z,95198.19
2018-07-11T23:15:54.436Z,95195.42
2018-07-11T23:18:22.616Z,95198.48
2018-07-11T23:20:50.767Z,95195.23
2018-07-11T23:23:18.936Z,95205.28
2018-07-11T23:25:47.152Z,95206.13
2018-07-11T23:28:15.327Z,95210.19
2018-07-11T23:30:43.488Z,95211.00
2018-07-11T23:33:11.568Z,95206.64
2018-07-11T23:35:39.760Z,95212.46
2018-07-11T23:38:07.974Z,95219.08
2018-07-11T23:40:36.089Z,95221.55
2018-07-11T23:43:04.128Z,95222.66
2018-07-11T23:45:32.201Z,95221.63
2018-07-11T23:48:00.380Z,95211.98
2018-07-11T23:50:28.576Z,95224.03
2018-07-11T23:52:56.708Z,95221.05
2018-07-11T23:55:24.942Z,95214.25
2018-07-11T23:57:53.003Z,95217.78
